Персирланы

Карта отелей и гостиниц, располагающихся рядом с аэропортом Персирланы :

Персирланы Чувашия 55° 51' 34.0812" N, 46° 16' 6.06" E
Код аэродрома ИКАО
ZAB6
Код аэродрома RU
ЗАБ6
Координаты
N55.85947° E046.26835°
Превышение над уровнем моря
164
Основная полоса
01/19
Курс магнитный
014/194
Длина основной ВПП
400
Ширина основной ВПП
19
Покрытие основной ВПП
Твёрдое (асфальт)
Освещение ВПП
Нет
Тип: 
Аэродром
Класс аэродрома: 
Принадлежность: 
ГА
Статус: 
Недействующий
Сайт: 
E-mail аэродрома: 
Страна: 
Россия
Регион: 
Чувашия
Город: 
Дополнительная информация: 
Площадка АХР.

Найти трансфер

С помощью этой формы Вы можете найти трансфер из аэропорта Персирланы в город, аэропорт или вокзал:

Карта места

Javascript is required to view this map.

Погода в аэропортах:

Авиационная погода в Вадсё

Регион: 
Погода METAR: 
ENVD 171320Z 05008KT 4000 DZ BKN004 01/00 Q1032
Время наблюдения
2021-04-17T13:20:00Z
Температура C
1.0
Точка росы
0.0
Направление ветра
50
Скорость ветра (узлы)
8
Метео видимость
2.49
Явления погоды
DZ
Условия полета
LIFR

Авиационная погода в Сочи

Регион: 
Погода METAR: 
URSS 171630Z 08002MPS 6000 -SHRA SCT011 OVC040CB 12/10 Q1021 WS ALL RWY R06/290060 R02/290060 NOSIG RMK R02/06002MPS MT OBSC QFE764
Время наблюдения
2021-04-17T16:30:00Z
Температура C
12.0
Точка росы
10.0
Направление ветра
80
Скорость ветра (узлы)
4
Метео видимость
3.73
Явления погоды
-SHRA
Условия полета
MVFR
Аэропорт подробнее: 

Авиационная погода в Полярном

Регион: 
Погода METAR: 
UERP 171700Z 30006G12MPS 9999 -SHSN DRSN BKN017CB OVC100 M12/M14 Q0995 NOSIG RMK QFE702
Время наблюдения
2021-04-17T17:00:00Z
Температура C
-12.0
Точка росы
-14.0
Направление ветра
300
Скорость ветра (узлы)
12
Метео видимость
6.21
Явления погоды
-SHSN DRSN
Условия полета
MVFR
Аэропорт подробнее: 

Авиационная погода в аэропорту Новый

Регион: 
Погода METAR: 
UHHH 171630Z 19001MPS 0050 R23R/P2000U PRFG VV002 00/00 Q1012 R23R/090060 NOSIG RMK QBB060 QFE753/1004
Время наблюдения
2021-04-17T16:30:00Z
Температура C
0.0
Точка росы
0.0
Направление ветра
190
Скорость ветра (узлы)
2
Метео видимость
0.03
Явления погоды
PRFG
Условия полета
LIFR
Аэропорт подробнее: